Decoded Metar for GEML (MELILLA in SPAIN) (IATA:MLN) | Meteo·Mobile Aviation Weather
aviador You're here:

GEML Decoded Metar

MELILLA in SPAIN
Report Time2019-09-23 08:30:00
UTC Time2019-09-23 08:54:05
Flight Rules vfr VFR
Wind260° at 06 kt
W.Decomp.*RWY 33: 2.2 kt HW 5.6 kt LCW
Visibility9999 m
Phenomena:N/A
Clouds:N/A
Expected CloudBase > 2,800 ft AGL from Temp-Dew spread
CeilingNone
Temp23°C (ISA +8)
Dew Point16°C (65% RH)
AAT22.8°C
QNH1020 hPa
Density Alt1,158 ft
Elevation180 ft
Report Wrong Elevation
Raw Report
GEML 230830Z 26006KT 230V320 CAVOK 23/16 Q1020=

Extra information for GEML:More info

Metar Taf Metar & Taf Last 4 Metars F.Rules Stats Wind Profile Meteogram Temp Stats Airport Information Weather charts Add Link Nearby VenuesMetar ALERT Operation Metar Decoded Social comments